Time;durP1;ratioP1;P1;durP2;ratioP2;P2;SDS_P1;SDS_P2;PMS_P1;PMS_P2;Temp;Humidity;BMP_temperature;BMP_pressure;BME280_temperature;BME280_humidity;BME280_pressure;Samples;Min_cycle;Max_cycle;Signal;HPM_P1;HPM_P2
2023/11/21 00:01:05;;;;;;;13.65;9.73;;;10.90;99.90;;;;;;5032506;28;20081;-71
2023/11/21 00:03:31;;;;;;;16.92;9.68;;;10.90;99.90;;;;;;5033299;28;20045;-72
2023/11/21 00:05:57;;;;;;;16.02;9.25;;;11.00;99.90;;;;;;5033182;28;20089;-72
2023/11/21 00:08:23;;;;;;;17.55;9.50;;;11.00;99.90;;;;;;5046654;28;20029;-72
2023/11/21 00:10:49;;;;;;;12.45;9.05;;;11.00;99.90;;;;;;5053152;28;20044;-73
2023/11/21 00:13:14;;;;;;;13.55;8.75;;;11.00;99.90;;;;;;5041196;28;20045;-72
2023/11/21 00:15:40;;;;;;;15.35;9.02;;;11.00;99.90;;;;;;5032940;28;20033;-73
2023/11/21 00:18:06;;;;;;;10.63;8.13;;;11.00;99.90;;;;;;5033080;28;20095;-71
2023/11/21 00:20:32;;;;;;;14.02;9.43;;;11.00;99.90;;;;;;5033075;28;20083;-72
2023/11/21 00:22:59;;;;;;;11.63;8.43;;;11.00;99.90;;;;;;5033052;28;20029;-72
2023/11/21 00:25:25;;;;;;;13.02;8.23;;;11.00;99.90;;;;;;5033000;28;20079;-72
2023/11/21 00:27:51;;;;;;;16.67;8.63;;;11.00;99.90;;;;;;5032886;28;20025;-71
2023/11/21 00:30:17;;;;;;;14.70;8.50;;;11.00;99.90;;;;;;5031849;28;20049;-72
2023/11/21 00:32:43;;;;;;;13.48;8.82;;;11.00;99.90;;;;;;5032663;28;20025;-72
2023/11/21 00:35:09;;;;;;;12.10;7.85;;;11.00;99.90;;;;;;5033024;28;20040;-72
2023/11/21 00:37:34;;;;;;;13.25;7.95;;;11.00;99.90;;;;;;5032856;28;20029;-72
2023/11/21 00:40:04;;;;;;;11.35;7.32;;;11.00;99.90;;;;;;5032589;28;20492;-72
2023/11/21 00:42:31;;;;;;;11.75;7.22;;;11.00;99.90;;;;;;5032667;28;20030;-71
2023/11/21 00:44:57;;;;;;;13.82;8.30;;;11.00;99.90;;;;;;5033081;28;20374;-72
2023/11/21 00:47:23;;;;;;;13.57;8.98;;;11.00;99.90;;;;;;5032678;28;20025;-71
2023/11/21 00:49:49;;;;;;;14.30;8.75;;;11.00;99.90;;;;;;5032609;28;20029;-71
2023/11/21 00:52:15;;;;;;;12.45;8.30;;;11.00;99.90;;;;;;5032577;28;20532;-72
2023/11/21 00:54:41;;;;;;;13.35;10.40;;;11.00;99.90;;;;;;5032346;28;20028;-72
2023/11/21 00:57:08;;;;;;;15.18;12.15;;;11.00;99.90;;;;;;5032238;28;20033;-72
2023/11/21 00:59:34;;;;;;;23.60;14.80;;;11.00;99.90;;;;;;5032474;28;20021;-72
2023/11/21 01:02:01;;;;;;;19.52;15.10;;;11.00;99.90;;;;;;5032605;28;20047;-72
2023/11/21 01:04:27;;;;;;;23.63;14.70;;;11.00;99.90;;;;;;5032575;28;20030;-72
2023/11/21 01:06:53;;;;;;;23.90;18.10;;;11.00;99.90;;;;;;5032055;28;20064;-71
2023/11/21 01:09:19;;;;;;;27.15;18.13;;;11.10;99.90;;;;;;5032402;28;20045;-72
2023/11/21 01:11:46;;;;;;;27.08;16.27;;;11.10;99.90;;;;;;5032212;28;20382;-72
2023/11/21 01:14:13;;;;;;;20.75;15.27;;;11.00;99.90;;;;;;5032299;28;20132;-72
2023/11/21 01:16:39;;;;;;;19.23;14.85;;;11.00;99.90;;;;;;5032529;28;20038;-71
2023/11/21 01:19:04;;;;;;;19.35;15.10;;;11.10;99.90;;;;;;5032249;28;20022;-71
2023/11/21 01:21:31;;;;;;;21.10;13.60;;;11.00;99.90;;;;;;5032246;28;20029;-72
2023/11/21 01:23:57;;;;;;;16.63;11.18;;;11.00;99.90;;;;;;5032452;28;20013;-73
2023/11/21 01:26:22;;;;;;;13.98;10.18;;;11.00;99.90;;;;;;5032451;28;20025;-73
2023/11/21 01:28:48;;;;;;;12.13;9.40;;;11.00;99.90;;;;;;5032424;28;20025;-73
2023/11/21 01:31:15;;;;;;;12.95;9.68;;;11.10;99.90;;;;;;5032576;28;20456;-73
2023/11/21 01:33:41;;;;;;;12.35;8.52;;;11.00;99.90;;;;;;5031977;28;20029;-73
2023/11/21 01:36:07;;;;;;;16.00;8.88;;;11.10;99.90;;;;;;5032306;28;20466;-73
2023/11/21 01:38:33;;;;;;;11.45;8.20;;;11.10;99.90;;;;;;5032107;28;20026;-72
2023/11/21 01:41:00;;;;;;;15.15;8.63;;;11.10;99.90;;;;;;5033674;28;20037;-73
2023/11/21 01:43:27;;;;;;;14.50;9.02;;;11.10;99.90;;;;;;5036051;28;20017;-73
2023/11/21 01:45:56;;;;;;;15.02;8.68;;;11.10;99.90;;;;;;5036041;28;20466;-72
2023/11/21 01:48:26;;;;;;;11.63;8.30;;;11.20;99.90;;;;;;5036100;28;20517;-72
2023/11/21 01:50:51;;;;;;;15.93;8.75;;;11.10;99.90;;;;;;5036069;28;20032;-72
2023/11/21 01:53:18;;;;;;;16.38;8.38;;;11.10;99.90;;;;;;5035815;28;20025;-72
2023/11/21 01:55:46;;;;;;;23.58;8.77;;;11.20;99.90;;;;;;5035716;28;20032;-73
2023/11/21 01:58:16;;;;;;;11.18;8.30;;;11.20;99.90;;;;;;5034179;28;20117;-72
2023/11/21 02:00:43;;;;;;;27.95;11.82;;;11.20;99.90;;;;;;5033024;28;20030;-73
2023/11/21 02:03:10;;;;;;;19.42;12.43;;;11.20;99.90;;;;;;5031576;28;20440;-72
2023/11/21 02:05:36;;;;;;;26.52;17.98;;;11.20;99.90;;;;;;5034877;28;20029;-73
2023/11/21 02:08:03;;;;;;;30.52;18.58;;;11.20;99.90;;;;;;5035450;28;20450;-72
2023/11/21 02:10:29;;;;;;;27.00;19.50;;;11.20;99.90;;;;;;5035690;28;20029;-72
2023/11/21 02:12:56;;;;;;;25.55;18.45;;;11.20;99.90;;;;;;5034833;28;20041;-73
2023/11/21 02:15:23;;;;;;;25.70;18.60;;;11.20;99.90;;;;;;5035101;28;20087;-73
2023/11/21 02:17:53;;;;;;;24.48;17.33;;;11.20;99.90;;;;;;5035126;28;20041;-72
2023/11/21 02:20:24;;;;;;;23.52;16.92;;;11.20;99.90;;;;;;5035079;28;20040;-72
2023/11/21 02:23:00;;;;;;;22.50;16.25;;;11.20;99.90;;;;;;5035250;28;20029;-72
2023/11/21 02:25:30;;;;;;;24.10;16.23;;;11.20;99.90;;;;;;5035009;28;20100;-72
2023/11/21 02:27:57;;;;;;;23.20;16.45;;;11.20;99.90;;;;;;5034657;28;20032;-73
2023/11/21 02:30:24;;;;;;;20.60;15.85;;;11.20;99.90;;;;;;5035257;28;20442;-72
2023/11/21 02:32:53;;;;;;;21.17;16.60;;;11.20;99.90;;;;;;5034862;28;20029;-72
2023/11/21 02:35:21;;;;;;;21.27;16.77;;;11.20;99.90;;;;;;5034521;28;20359;-73
2023/11/21 02:37:47;;;;;;;25.25;17.60;;;11.20;99.90;;;;;;5033325;28;20034;-72
2023/11/21 02:40:17;;;;;;;24.55;15.73;;;11.20;99.90;;;;;;5034854;28;20049;-73
2023/11/21 02:42:47;;;;;;;19.15;14.00;;;11.20;99.90;;;;;;5034609;28;20018;-73
2023/11/21 02:45:16;;;;;;;18.27;12.52;;;11.20;99.90;;;;;;5034846;28;20033;-73
2023/11/21 02:47:43;;;;;;;16.90;10.90;;;11.20;99.90;;;;;;5034779;28;20029;-73
2023/11/21 02:50:09;;;;;;;15.98;11.07;;;11.20;99.90;;;;;;5034646;28;20029;-73
2023/11/21 02:52:35;;;;;;;20.58;11.85;;;11.20;99.90;;;;;;5033681;28;20083;-73
2023/11/21 02:55:04;;;;;;;15.02;11.15;;;11.20;99.90;;;;;;5034605;28;20033;-73
2023/11/21 02:57:30;;;;;;;15.65;11.88;;;11.20;99.90;;;;;;5034226;28;20547;-72
2023/11/21 02:59:56;;;;;;;24.73;13.90;;;11.20;99.90;;;;;;5035426;28;20029;-72
2023/11/21 03:02:22;;;;;;;21.35;12.35;;;11.30;99.90;;;;;;5034468;28;20036;-73
2023/11/21 03:04:49;;;;;;;17.17;13.65;;;11.30;99.90;;;;;;5034661;28;20373;-73
2023/11/21 03:07:15;;;;;;;19.25;13.70;;;11.30;99.90;;;;;;5034385;28;20033;-73
2023/11/21 03:09:41;;;;;;;21.65;13.30;;;11.30;99.90;;;;;;5034519;28;20101;-72
2023/11/21 03:12:08;;;;;;;12.75;8.88;;;11.30;99.90;;;;;;5034122;28;20052;-73
2023/11/21 03:14:34;;;;;;;10.45;6.75;;;11.30;99.90;;;;;;5032739;28;20025;-72
2023/11/21 03:17:00;;;;;;;10.02;5.80;;;11.30;99.90;;;;;;5033829;28;20076;-72
2023/11/21 03:19:26;;;;;;;9.52;6.50;;;11.30;99.90;;;;;;5033737;28;20116;-72
2023/11/21 03:21:53;;;;;;;8.30;6.03;;;11.30;99.90;;;;;;5034109;28;20057;-72
2023/11/21 03:24:19;;;;;;;7.63;5.32;;;11.30;99.90;;;;;;5034076;28;20033;-73
2023/11/21 03:26:46;;;;;;;9.45;5.75;;;11.30;99.90;;;;;;5034020;28;20029;-72
2023/11/21 03:29:12;;;;;;;10.25;5.82;;;11.30;99.90;;;;;;5033607;28;20030;-73
2023/11/21 03:31:39;;;;;;;9.98;6.45;;;11.20;99.90;;;;;;5033900;28;20053;-72
2023/11/21 03:34:05;;;;;;;11.32;7.03;;;11.30;99.90;;;;;;5032557;28;20366;-72
2023/11/21 03:36:32;;;;;;;8.85;6.20;;;11.30;99.90;;;;;;5033705;28;20139;-73
2023/11/21 03:38:57;;;;;;;10.75;6.40;;;11.20;99.90;;;;;;5033636;28;20115;-72
2023/11/21 03:41:23;;;;;;;10.40;6.25;;;11.20;99.90;;;;;;5033563;28;20036;-73
2023/11/21 03:43:49;;;;;;;10.38;6.60;;;11.20;99.90;;;;;;5033655;28;20091;-73
2023/11/21 03:46:14;;;;;;;11.48;6.13;;;11.20;99.90;;;;;;5033376;28;20053;-72
2023/11/21 03:48:41;;;;;;;10.32;6.45;;;11.20;99.90;;;;;;5032955;28;20022;-72
2023/11/21 03:51:07;;;;;;;7.63;6.55;;;11.20;99.90;;;;;;5033642;28;20021;-73
2023/11/21 03:53:33;;;;;;;9.93;7.57;;;11.20;99.90;;;;;;5033584;28;20481;-72
2023/11/21 03:56:01;;;;;;;10.02;7.50;;;11.20;99.90;;;;;;5033482;28;20061;-73
2023/11/21 03:58:27;;;;;;;9.60;6.57;;;11.20;99.90;;;;;;5033435;28;20033;-72
2023/11/21 04:00:53;;;;;;;12.23;6.60;;;11.20;99.90;;;;;;5033229;28;20021;-73
2023/11/21 04:03:19;;;;;;;15.57;7.45;;;11.20;99.90;;;;;;5032886;28;20061;-73
2023/11/21 04:05:45;;;;;;;12.63;8.45;;;11.20;99.90;;;;;;5033235;28;20032;-72
2023/11/21 04:08:11;;;;;;;13.38;7.93;;;11.20;99.90;;;;;;5033425;28;20021;-73
2023/11/21 04:10:39;;;;;;;11.60;7.50;;;11.20;99.90;;;;;;5033029;28;20129;-73
2023/11/21 04:13:06;;;;;;;10.90;7.70;;;11.20;99.90;;;;;;5033004;28;20045;-73
2023/11/21 04:15:32;;;;;;;10.90;7.95;;;11.20;99.90;;;;;;5033497;28;20029;-73
2023/11/21 04:17:58;;;;;;;10.35;7.43;;;11.20;99.90;;;;;;5033255;28;20026;-73
2023/11/21 04:20:24;;;;;;;17.70;15.85;;;11.10;99.90;;;;;;5033193;28;20108;-73
2023/11/21 04:22:51;;;;;;;15.52;11.45;;;11.10;99.90;;;;;;5033118;28;20022;-72
2023/11/21 04:25:17;;;;;;;12.15;8.23;;;11.10;99.90;;;;;;5032972;28;20477;-73
2023/11/21 04:27:44;;;;;;;7.80;5.75;;;11.20;99.90;;;;;;5032737;28;20038;-73
2023/11/21 04:30:14;;;;;;;8.15;5.70;;;11.20;99.90;;;;;;5032890;28;20103;-73
2023/11/21 04:32:39;;;;;;;8.93;7.03;;;11.20;99.90;;;;;;5032876;28;20144;-72
2023/11/21 04:35:06;;;;;;;12.65;7.32;;;11.20;99.90;;;;;;5032999;28;20478;-73
2023/11/21 04:37:31;;;;;;;11.80;9.73;;;11.20;99.90;;;;;;5032675;28;20037;-72
2023/11/21 04:39:57;;;;;;;11.45;6.82;;;11.20;99.90;;;;;;5032483;28;20037;-72
2023/11/21 04:42:23;;;;;;;10.20;6.72;;;11.20;99.90;;;;;;5032272;28;20025;-72
2023/11/21 04:44:49;;;;;;;9.38;5.68;;;11.20;99.90;;;;;;5032645;28;20033;-73
2023/11/21 04:47:15;;;;;;;11.48;5.60;;;11.20;99.90;;;;;;5032740;28;20517;-72
2023/11/21 04:49:43;;;;;;;9.68;5.72;;;11.20;99.90;;;;;;5032443;28;20049;-72
2023/11/21 04:52:09;;;;;;;9.23;5.50;;;11.20;99.90;;;;;;5032367;28;20040;-71
2023/11/21 04:54:36;;;;;;;11.82;6.28;;;11.20;99.90;;;;;;5030684;28;20029;-73
2023/11/21 04:57:02;;;;;;;8.48;5.20;;;11.20;99.90;;;;;;5032096;28;20491;-73
2023/11/21 04:59:28;;;;;;;7.78;5.40;;;11.20;99.90;;;;;;5032443;28;20104;-72
2023/11/21 05:01:54;;;;;;;13.95;5.65;;;11.20;99.90;;;;;;5032458;28;20026;-73
2023/11/21 05:04:22;;;;;;;9.40;5.50;;;11.20;99.90;;;;;;5032496;28;20451;-73
2023/11/21 05:06:48;;;;;;;7.75;5.28;;;11.30;99.90;;;;;;5032303;28;20466;-73
2023/11/21 05:09:15;;;;;;;8.07;5.55;;;11.20;99.90;;;;;;5032367;28;20029;-71
2023/11/21 05:11:41;;;;;;;10.38;5.55;;;11.30;99.90;;;;;;5032810;28;20068;-73
2023/11/21 05:14:08;;;;;;;9.52;5.72;;;11.20;99.90;;;;;;5032137;28;20045;-74
2023/11/21 05:16:35;;;;;;;8.05;5.88;;;11.30;99.90;;;;;;5034951;28;20056;-73
2023/11/21 05:19:01;;;;;;;8.40;5.70;;;11.20;99.90;;;;;;5036645;28;20477;-73
2023/11/21 05:21:33;;;;;;;7.95;5.57;;;11.20;99.90;;;;;;5035275;28;20029;-73
2023/11/21 05:23:59;;;;;;;11.05;5.57;;;11.30;99.90;;;;;;5036269;28;20095;-73
2023/11/21 05:26:24;;;;;;;11.60;5.47;;;11.30;99.90;;;;;;5036338;28;20025;-73
2023/11/21 05:28:50;;;;;;;16.30;6.55;;;11.30;99.90;;;;;;5036513;28;20025;-73
2023/11/21 05:31:16;;;;;;;13.48;7.38;;;11.20;99.90;;;;;;5036298;28;20092;-73
2023/11/21 05:33:42;;;;;;;11.27;6.50;;;11.20;99.90;;;;;;5036135;28;20045;-73
2023/11/21 05:36:09;;;;;;;13.52;6.25;;;11.20;99.90;;;;;;5034775;28;20055;-73
2023/11/21 05:38:36;;;;;;;11.60;6.40;;;11.20;99.90;;;;;;5035786;28;20108;-73
2023/11/21 05:41:03;;;;;;;11.60;7.00;;;11.20;99.90;;;;;;5036007;28;20038;-74
2023/11/21 05:43:30;;;;;;;11.43;7.25;;;11.20;99.90;;;;;;5035693;28;20046;-74
2023/11/21 05:45:56;;;;;;;13.13;7.15;;;11.20;99.90;;;;;;5035860;28;20033;-72
2023/11/21 05:48:23;;;;;;;11.18;6.90;;;11.20;99.90;;;;;;5035851;28;20029;-73
2023/11/21 05:50:49;;;;;;;11.68;6.85;;;11.20;99.90;;;;;;5035909;28;20528;-73
2023/11/21 05:53:15;;;;;;;12.60;7.60;;;11.20;99.90;;;;;;5035581;28;20051;-74
2023/11/21 05:55:42;;;;;;;10.32;6.63;;;11.20;99.90;;;;;;5035519;28;20026;-74
2023/11/21 05:58:08;;;;;;;12.55;6.65;;;11.20;99.90;;;;;;5035824;28;20056;-73
2023/11/21 06:00:33;;;;;;;12.00;7.13;;;11.20;99.90;;;;;;5035327;28;20022;-73
2023/11/21 06:02:59;;;;;;;10.93;6.88;;;11.10;99.90;;;;;;5035263;28;20075;-73
2023/11/21 06:05:26;;;;;;;10.55;6.95;;;11.20;99.90;;;;;;5035395;28;20029;-73
2023/11/21 06:07:53;;;;;;;13.98;6.95;;;11.20;99.90;;;;;;5034236;28;20099;-73
2023/11/21 06:10:21;;;;;;;10.82;7.43;;;11.20;99.90;;;;;;5035830;28;20353;-73
2023/11/21 06:12:47;;;;;;;9.85;6.90;;;11.20;99.90;;;;;;5034073;28;20363;-73
2023/11/21 06:15:18;;;;;;;8.13;7.07;;;11.20;99.90;;;;;;5035302;28;20056;-72
2023/11/21 06:17:45;;;;;;;10.73;7.63;;;11.10;99.90;;;;;;5034764;28;20060;-73
2023/11/21 06:20:13;;;;;;;12.00;7.72;;;11.10;99.90;;;;;;5035060;28;20032;-73
2023/11/21 06:22:41;;;;;;;11.32;7.05;;;11.20;99.90;;;;;;5035270;28;20025;-73
2023/11/21 06:25:08;;;;;;;13.88;7.15;;;11.20;99.90;;;;;;5035141;28;20413;-72
2023/11/21 06:27:38;;;;;;;12.05;7.55;;;11.20;99.90;;;;;;5035294;28;20052;-73
2023/11/21 06:30:06;;;;;;;9.50;7.07;;;11.20;99.90;;;;;;5035211;28;20017;-73
2023/11/21 06:32:32;;;;;;;11.35;7.18;;;11.20;99.90;;;;;;5035041;28;20064;-73
2023/11/21 06:35:01;;;;;;;9.70;7.43;;;11.20;99.90;;;;;;5035228;28;20406;-73
2023/11/21 06:37:28;;;;;;;9.25;6.63;;;11.20;99.90;;;;;;5035205;28;20034;-74
2023/11/21 06:39:54;;;;;;;9.45;7.30;;;11.20;99.90;;;;;;5034998;28;20040;-72
2023/11/21 06:42:20;;;;;;;10.20;6.95;;;11.20;99.90;;;;;;5034888;28;20027;-72
2023/11/21 06:44:46;;;;;;;11.77;7.57;;;11.20;99.90;;;;;;5035205;28;20071;-72
2023/11/21 06:47:12;;;;;;;11.57;7.88;;;11.20;99.90;;;;;;5033785;28;20028;-72
2023/11/21 06:49:38;;;;;;;10.90;8.05;;;11.20;99.90;;;;;;5034000;28;20026;-73
2023/11/21 06:52:04;;;;;;;12.02;8.95;;;11.20;99.90;;;;;;5034842;28;20124;-72
2023/11/21 06:54:33;;;;;;;12.05;8.60;;;11.20;99.90;;;;;;5034950;28;20021;-72
2023/11/21 06:56:58;;;;;;;15.20;8.05;;;11.20;99.90;;;;;;5034831;28;20485;-73
2023/11/21 06:59:24;;;;;;;10.07;7.28;;;11.20;99.90;;;;;;5034518;28;20033;-73
2023/11/21 07:01:50;;;;;;;13.85;7.88;;;11.20;99.90;;;;;;5032967;28;20036;-72
2023/11/21 07:04:16;;;;;;;11.77;7.40;;;11.20;99.90;;;;;;5033803;28;20028;-71
2023/11/21 07:06:43;;;;;;;11.15;7.20;;;11.20;99.90;;;;;;5034410;28;20032;-71
2023/11/21 07:09:11;;;;;;;12.38;7.63;;;11.20;99.90;;;;;;5034252;28;20022;-71
2023/11/21 07:11:38;;;;;;;12.18;7.20;;;11.20;99.90;;;;;;5033097;28;20025;-71
2023/11/21 07:14:07;;;;;;;10.43;6.20;;;11.20;99.90;;;;;;5034281;28;20200;-71
2023/11/21 07:16:38;;;;;;;11.55;5.80;;;11.20;99.90;;;;;;5034472;28;20036;-71
2023/11/21 07:19:06;;;;;;;9.95;6.32;;;11.20;99.90;;;;;;5034559;28;20025;-72
2023/11/21 07:21:35;;;;;;;9.18;6.32;;;11.20;99.90;;;;;;5033221;28;20052;-72
2023/11/21 07:24:06;;;;;;;9.10;5.90;;;11.20;99.90;;;;;;5034287;28;20482;-71
2023/11/21 07:26:35;;;;;;;8.27;5.00;;;11.20;99.90;;;;;;5032983;28;20061;-71
2023/11/21 07:29:04;;;;;;;18.77;6.70;;;11.20;99.90;;;;;;5034310;28;20032;-71
2023/11/21 07:31:30;;;;;;;9.10;5.60;;;11.20;99.90;;;;;;5033207;28;20511;-71
2023/11/21 07:33:58;;;;;;;6.20;4.88;;;11.20;99.90;;;;;;5033946;28;20017;-71
2023/11/21 07:36:25;;;;;;;8.02;4.35;;;11.20;99.90;;;;;;5034098;28;20084;-71
2023/11/21 07:38:51;;;;;;;6.13;3.92;;;11.20;99.90;;;;;;5032215;28;20079;-71
2023/11/21 07:41:18;;;;;;;7.20;4.40;;;11.20;99.90;;;;;;5033778;28;20026;-71
2023/11/21 07:43:44;;;;;;;8.00;4.45;;;11.20;99.90;;;;;;5033836;28;20044;-71
2023/11/21 07:46:12;;;;;;;6.78;4.50;;;11.20;99.90;;;;;;5033573;28;20025;-71
2023/11/21 07:48:42;;;;;;;5.25;3.95;;;11.20;99.90;;;;;;5033240;28;20108;-71
2023/11/21 07:51:08;;;;;;;8.85;4.50;;;11.30;99.90;;;;;;5033911;28;20035;-72
2023/11/21 07:53:35;;;;;;;7.07;4.75;;;11.20;99.90;;;;;;5032503;28;20036;-71
2023/11/21 07:56:05;;;;;;;8.10;5.43;;;11.30;99.90;;;;;;5033614;28;20076;-72
2023/11/21 07:58:33;;;;;;;13.95;8.40;;;11.30;99.90;;;;;;5029677;28;20108;-74
2023/11/21 08:00:59;;;;;;;14.75;8.18;;;11.30;99.90;;;;;;5029988;28;20079;-73
2023/11/21 08:03:26;;;;;;;11.98;4.68;;;11.30;99.90;;;;;;5030752;28;20477;-73
2023/11/21 08:05:52;;;;;;;9.68;5.60;;;11.30;99.90;;;;;;5032397;28;20433;-72
2023/11/21 08:08:18;;;;;;;15.38;5.90;;;11.40;99.90;;;;;;5033071;28;20075;-73
2023/11/21 08:10:55;;;;;;;10.70;5.47;;;11.40;99.90;;;;;;5033462;28;20021;-72
2023/11/21 08:13:22;;;;;;;6.13;3.95;;;11.40;99.90;;;;;;5033455;28;20061;-70
2023/11/21 08:15:48;;;;;;;7.85;4.10;;;11.40;99.90;;;;;;5033823;28;20037;-72
2023/11/21 08:18:14;;;;;;;7.10;3.63;;;11.50;99.90;;;;;;5033229;28;20009;-72
2023/11/21 08:20:40;;;;;;;5.63;3.50;;;11.50;99.90;;;;;;5031633;28;20095;-72
2023/11/21 08:23:06;;;;;;;10.20;4.85;;;11.50;99.90;;;;;;5031615;28;20022;-71
2023/11/21 08:25:34;;;;;;;12.88;6.28;;;11.60;99.90;;;;;;5033905;28;20057;-72
2023/11/21 08:28:01;;;;;;;32.05;17.05;;;11.60;99.90;;;;;;5032247;28;20025;-72
2023/11/21 08:30:29;;;;;;;38.38;21.83;;;11.60;99.90;;;;;;5032962;28;20477;-72
2023/11/21 08:32:58;;;;;;;39.78;25.25;;;11.60;99.90;;;;;;5033065;28;20025;-72
2023/11/21 08:35:24;;;;;;;39.15;21.48;;;11.70;99.90;;;;;;5033097;28;20568;-71
2023/11/21 08:37:53;;;;;;;30.02;17.23;;;11.70;99.90;;;;;;5033042;28;20366;-72
2023/11/21 08:40:20;;;;;;;24.55;14.82;;;11.70;99.90;;;;;;5033187;28;20026;-72
2023/11/21 08:42:47;;;;;;;16.73;8.73;;;11.70;99.90;;;;;;5039902;28;20033;-72
2023/11/21 08:45:17;;;;;;;11.13;5.40;;;11.70;99.90;;;;;;5052679;28;20052;-73
2023/11/21 08:47:46;;;;;;;6.68;3.83;;;11.70;99.90;;;;;;5051525;28;20048;-72
2023/11/21 08:50:12;;;;;;;7.90;4.45;;;11.70;99.90;;;;;;5052318;28;20044;-72
2023/11/21 08:52:40;;;;;;;11.05;4.60;;;11.70;99.90;;;;;;5052614;28;20029;-72
2023/11/21 08:55:12;;;;;;;99.70;38.85;;;11.70;99.90;;;;;;5052660;28;20056;-72
2023/11/21 08:57:38;;;;;;;99.32;45.00;;;11.70;99.90;;;;;;5050925;28;20082;-72
2023/11/21 09:00:10;;;;;;;68.43;31.58;;;11.70;99.90;;;;;;5052316;28;20055;-72
2023/11/21 09:02:37;;;;;;;37.70;19.90;;;11.70;99.90;;;;;;5049368;28;20029;-72
2023/11/21 09:05:06;;;;;;;11.93;5.40;;;11.70;99.90;;;;;;5051798;28;20355;-73
2023/11/21 09:07:32;;;;;;;9.10;5.78;;;11.70;99.90;;;;;;5053039;28;20021;-72
2023/11/21 09:09:58;;;;;;;5.65;3.40;;;11.70;99.90;;;;;;5052851;28;20032;-73
2023/11/21 09:12:27;;;;;;;6.97;4.20;;;11.70;99.90;;;;;;5052783;28;20048;-72
2023/11/21 09:14:53;;;;;;;9.13;3.90;;;11.70;99.90;;;;;;5052694;28;20457;-73
2023/11/21 09:17:19;;;;;;;7.82;3.08;;;11.80;99.90;;;;;;5051124;28;20080;-72
2023/11/21 09:19:49;;;;;;;5.40;2.95;;;11.80;99.90;;;;;;5051135;28;20052;-73
2023/11/21 09:22:15;;;;;;;5.20;2.28;;;11.80;99.90;;;;;;5051865;28;20377;-73
2023/11/21 09:24:42;;;;;;;3.65;2.63;;;11.80;99.90;;;;;;5051791;28;20029;-73
2023/11/21 09:27:09;;;;;;;4.47;2.55;;;11.80;99.90;;;;;;5051954;28;20013;-72
2023/11/21 09:29:36;;;;;;;5.32;2.10;;;11.80;99.90;;;;;;5051720;28;20159;-72
2023/11/21 09:32:03;;;;;;;4.50;2.30;;;11.80;99.90;;;;;;5052125;28;20062;-72
2023/11/21 09:34:28;;;;;;;4.03;2.58;;;11.80;99.90;;;;;;5052439;28;20025;-73
2023/11/21 09:36:54;;;;;;;5.30;2.85;;;11.80;99.90;;;;;;5052325;28;20161;-73
2023/11/21 09:39:20;;;;;;;4.25;1.98;;;11.80;99.90;;;;;;5052684;28;20029;-73
2023/11/21 09:42:16;;;;;;;3.72;1.70;;;11.90;99.90;;;;;;5052452;28;20032;-72
2023/11/21 09:45:01;;;;;;;3.53;1.45;;;11.90;99.90;;;;;;5052448;28;20029;-73
2023/11/21 09:47:27;;;;;;;3.05;1.40;;;11.90;99.90;;;;;;5052298;28;20040;-73
2023/11/21 09:49:55;;;;;;;5.43;1.55;;;11.90;99.90;;;;;;5052314;28;20028;-73
2023/11/21 09:52:26;;;;;;;2.33;1.20;;;12.00;99.90;;;;;;5052511;28;20095;-72
2023/11/21 09:54:58;;;;;;;2.08;1.20;;;12.00;99.90;;;;;;5052322;28;20107;-73
2023/11/21 09:57:25;;;;;;;3.38;1.30;;;12.00;99.90;;;;;;5052281;28;20550;-72
2023/11/21 09:59:59;;;;;;;3.47;0.88;;;12.10;99.90;;;;;;5052278;28;20111;-72
2023/11/21 10:02:30;;;;;;;1.92;1.02;;;12.10;99.90;;;;;;5054657;28;20029;-73
2023/11/21 10:04:56;;;;;;;2.13;1.20;;;12.20;99.90;;;;;;5055865;28;20040;-72
2023/11/21 10:07:23;;;;;;;2.40;1.20;;;12.20;99.90;;;;;;5055937;28;20029;-73
2023/11/21 10:09:51;;;;;;;5.55;1.10;;;12.20;99.90;;;;;;5055931;28;20400;-72
2023/11/21 10:12:16;;;;;;;2.72;1.50;;;12.20;99.90;;;;;;5064853;23;21067;-72
2023/11/21 10:14:46;;;;;;;2.15;1.15;;;12.20;99.90;;;;;;5075743;28;20048;-72
2023/11/21 10:17:15;;;;;;;1.98;1.00;;;12.20;99.90;;;;;;5075764;28;20579;-72
2023/11/21 10:19:43;;;;;;;1.80;1.10;;;12.20;99.90;;;;;;5075558;28;20451;-72
2023/11/21 10:22:08;;;;;;;1.73;0.80;;;12.20;99.90;;;;;;5075715;28;20024;-72
2023/11/21 10:24:36;;;;;;;1.33;0.82;;;12.30;99.90;;;;;;5075778;28;20028;-72
2023/11/21 10:27:03;;;;;;;1.67;0.80;;;12.30;99.90;;;;;;5075539;28;20072;-72
2023/11/21 10:29:35;;;;;;;1.80;0.85;;;12.30;99.90;;;;;;5075402;28;20476;-72
2023/11/21 10:32:02;;;;;;;1.48;1.00;;;12.30;99.90;;;;;;5075530;28;20024;-72
2023/11/21 10:34:28;;;;;;;0.88;0.70;;;12.30;99.90;;;;;;5075345;28;20024;-72
2023/11/21 10:36:57;;;;;;;1.92;0.88;;;12.30;99.90;;;;;;5075339;28;20383;-72
2023/11/21 10:39:27;;;;;;;2.28;1.00;;;12.30;99.90;;;;;;5075376;28;20025;-72
2023/11/21 10:41:54;;;;;;;5.25;0.80;;;12.30;99.90;;;;;;5075393;28;20024;-72
2023/11/21 10:44:21;;;;;;;1.05;0.70;;;12.30;99.90;;;;;;5075235;28;20100;-72
2023/11/21 10:46:57;;;;;;;1.30;1.00;;;12.30;99.90;;;;;;5075269;28;20549;-72
2023/11/21 10:49:25;;;;;;;1.33;0.80;;;12.30;99.90;;;;;;5075235;28;20150;-73
2023/11/21 10:51:55;;;;;;;4.35;1.08;;;12.30;99.90;;;;;;5075024;28;20028;-72
2023/11/21 10:54:22;;;;;;;0.63;0.63;;;12.30;99.90;;;;;;5074864;28;20028;-72
2023/11/21 10:56:56;;;;;;;1.52;0.52;;;12.30;99.90;;;;;;5075029;28;20028;-72
2023/11/21 10:59:25;;;;;;;3.75;0.70;;;12.30;99.90;;;;;;5074756;28;20020;-72
2023/11/21 11:01:52;;;;;;;1.40;0.80;;;12.30;99.90;;;;;;5075096;28;20017;-73
2023/11/21 11:04:24;;;;;;;3.05;0.70;;;12.30;99.90;;;;;;5075054;28;20013;-72
2023/11/21 11:07:05;;;;;;;1.23;0.80;;;12.30;99.90;;;;;;5074727;28;20488;-73
2023/11/21 11:09:34;;;;;;;1.40;0.80;;;12.30;99.90;;;;;;5073554;28;20388;-73
2023/11/21 11:12:02;;;;;;;1.20;0.80;;;12.30;99.90;;;;;;5040341;28;20563;-72
2023/11/21 11:14:29;;;;;;;2.47;0.98;;;12.30;99.90;;;;;;5046871;28;20036;-72
2023/11/21 11:16:59;;;;;;;2.28;1.17;;;12.30;99.90;;;;;;5034455;28;20045;-71
2023/11/21 11:19:25;;;;;;;2.42;0.70;;;12.30;99.90;;;;;;5034337;28;20063;-72
2023/11/21 11:22:09;;;;;;;1.33;0.70;;;12.30;99.90;;;;;;5033033;28;20032;-72
2023/11/21 11:24:55;;;;;;;4.68;0.90;;;12.40;99.60;;;;;;5033998;28;20049;-73
2023/11/21 11:27:33;;;;;;;1.08;0.70;;;12.40;99.30;;;;;;5033926;28;20028;-72
2023/11/21 11:29:58;;;;;;;0.82;0.60;;;12.40;99.30;;;;;;5032658;28;20021;-72
2023/11/21 11:32:56;;;;;;;3.30;0.90;;;12.40;98.90;;;;;;5033350;28;20029;-72
2023/11/21 11:35:38;;;;;;;1.38;0.75;;;12.40;99.00;;;;;;5033623;28;20029;-73
2023/11/21 11:38:04;;;;;;;1.52;0.80;;;12.40;99.30;;;;;;5033481;28;20034;-72
2023/11/21 11:40:40;;;;;;;2.25;1.35;;;12.30;99.60;;;;;;5033546;28;20048;-72
2023/11/21 11:43:07;;;;;;;2.97;1.00;;;12.30;99.30;;;;;;5033538;28;20026;-72
2023/11/21 11:45:35;;;;;;;2.10;0.70;;;12.30;98.80;;;;;;5033801;28;20025;-72
2023/11/21 11:48:03;;;;;;;1.77;1.00;;;12.40;98.90;;;;;;5033793;28;20029;-72
2023/11/21 11:50:29;;;;;;;2.20;1.25;;;12.40;98.70;;;;;;5034059;28;20025;-71
2023/11/21 11:53:13;;;;;;;1.65;1.10;;;12.40;98.90;;;;;;5033147;28;20036;-73
2023/11/21 11:55:38;;;;;;;1.88;1.00;;;12.40;98.80;;;;;;5033609;28;20025;-72
2023/11/21 11:58:07;;;;;;;5.53;0.75;;;12.40;99.00;;;;;;5033795;28;20500;-72
2023/11/21 12:00:34;;;;;;;1.63;1.08;;;12.40;99.30;;;;;;5032455;28;20097;-72
2023/11/21 12:03:03;;;;;;;1.65;1.13;;;12.40;99.60;;;;;;5033412;28;20025;-72
2023/11/21 12:05:35;;;;;;;2.95;1.13;;;12.50;99.60;;;;;;5033556;28;20096;-72
2023/11/21 12:08:05;;;;;;;;;;;12.50;99.60;;;;;;5033884;28;20027;-72
2023/11/21 12:10:42;;;;;;;1.73;0.70;;;12.50;99.70;;;;;;5033816;28;19974;-72
2023/11/21 12:13:10;;;;;;;1.23;0.82;;;12.60;99.10;;;;;;5033205;28;20046;-72
2023/11/21 12:15:36;;;;;;;2.33;0.98;;;12.60;98.70;;;;;;5031805;28;20071;-72
2023/11/21 12:18:03;;;;;;;1.70;0.90;;;12.60;98.30;;;;;;5033208;28;20028;-72
2023/11/21 12:20:30;;;;;;;1.98;0.60;;;12.60;98.00;;;;;;5032891;28;20013;-72
2023/11/21 12:23:01;;;;;;;3.97;0.90;;;12.60;97.50;;;;;;5032881;28;20029;-72
2023/11/21 12:25:29;;;;;;;2.00;0.85;;;12.60;97.70;;;;;;5033038;28;20029;-72
2023/11/21 12:27:57;;;;;;;3.17;1.10;;;12.60;97.90;;;;;;5033504;28;20025;-72
2023/11/21 12:30:27;;;;;;;2.50;1.30;;;12.60;98.20;;;;;;5033494;28;20024;-72
2023/11/21 12:32:55;;;;;;;3.17;1.15;;;12.60;98.10;;;;;;5033353;28;20064;-72
2023/11/21 12:35:26;;;;;;;1.65;1.10;;;12.60;98.30;;;;;;5033242;28;20079;-73
2023/11/21 12:37:53;;;;;;;2.97;1.00;;;12.60;98.60;;;;;;5033018;28;20033;-72
2023/11/21 12:40:19;;;;;;;2.00;0.85;;;12.60;98.90;;;;;;5033294;28;20120;-72
2023/11/21 12:42:51;;;;;;;2.50;1.02;;;12.60;98.90;;;;;;5033059;28;20377;-72